sensor_id;sensor_type;location;lat;lon;timestamp;temperature;humidity
3268;DHT22;1646;52.450;13.326;2023-02-23T00:02:20;7.00;99.90
3268;DHT22;1646;52.450;13.326;2023-02-23T00:07:19;7.00;99.90
3268;DHT22;1646;52.450;13.326;2023-02-23T00:12:17;6.90;99.90
3268;DHT22;1646;52.450;13.326;2023-02-23T00:17:16;6.90;99.90
3268;DHT22;1646;52.450;13.326;2023-02-23T00:22:14;7.00;99.90
3268;DHT22;1646;52.450;13.326;2023-02-23T00:27:14;6.90;99.90
3268;DHT22;1646;52.450;13.326;2023-02-23T00:32:15;6.90;99.90
3268;DHT22;1646;52.450;13.326;2023-02-23T00:37:16;6.90;99.90
3268;DHT22;1646;52.450;13.326;2023-02-23T00:42:18;6.70;99.90
3268;DHT22;1646;52.450;13.326;2023-02-23T00:47:16;6.70;99.90
3268;DHT22;1646;52.450;13.326;2023-02-23T00:52:14;6.70;99.90
3268;DHT22;1646;52.450;13.326;2023-02-23T00:57:12;6.80;99.90
3268;DHT22;1646;52.450;13.326;2023-02-23T01:02:12;6.90;99.90
3268;DHT22;1646;52.450;13.326;2023-02-23T01:07:11;6.80;99.90
3268;DHT22;1646;52.450;13.326;2023-02-23T01:12:09;6.70;99.90
3268;DHT22;1646;52.450;13.326;2023-02-23T01:17:07;6.70;99.90
3268;DHT22;1646;52.450;13.326;2023-02-23T01:22:07;6.80;99.90
3268;DHT22;1646;52.450;13.326;2023-02-23T01:27:05;6.80;99.90
3268;DHT22;1646;52.450;13.326;2023-02-23T01:32:03;6.70;99.90
3268;DHT22;1646;52.450;13.326;2023-02-23T01:37:02;6.80;99.90
3268;DHT22;1646;52.450;13.326;2023-02-23T01:42:02;6.80;99.90
3268;DHT22;1646;52.450;13.326;2023-02-23T01:47:01;6.60;99.90
3268;DHT22;1646;52.450;13.326;2023-02-23T01:52:03;6.50;99.90
3268;DHT22;1646;52.450;13.326;2023-02-23T01:57:05;6.40;99.90
3268;DHT22;1646;52.450;13.326;2023-02-23T02:02:04;6.50;99.90
3268;DHT22;1646;52.450;13.326;2023-02-23T02:07:03;6.40;99.90
3268;DHT22;1646;52.450;13.326;2023-02-23T02:12:08;6.40;99.90
3268;DHT22;1646;52.450;13.326;2023-02-23T02:17:22;6.40;99.90
3268;DHT22;1646;52.450;13.326;2023-02-23T02:28:28;6.30;99.90
3268;DHT22;1646;52.450;13.326;2023-02-23T02:38:59;6.20;99.90
3268;DHT22;1646;52.450;13.326;2023-02-23T02:44:11;6.20;99.90
3268;DHT22;1646;52.450;13.326;2023-02-23T02:49:14;6.10;99.90
3268;DHT22;1646;52.450;13.326;2023-02-23T02:54:24;6.10;99.90
3268;DHT22;1646;52.450;13.326;2023-02-23T02:59:24;6.00;99.90
3268;DHT22;1646;52.450;13.326;2023-02-23T03:04:40;6.20;99.90
3268;DHT22;1646;52.450;13.326;2023-02-23T03:10:02;6.10;99.90
3268;DHT22;1646;52.450;13.326;2023-02-23T03:15:35;6.00;99.90
3268;DHT22;1646;52.450;13.326;2023-02-23T03:20:58;6.00;99.90
3268;DHT22;1646;52.450;13.326;2023-02-23T03:27:16;6.00;99.90
3268;DHT22;1646;52.450;13.326;2023-02-23T03:32:36;6.00;99.90
3268;DHT22;1646;52.450;13.326;2023-02-23T03:37:59;5.90;99.90
3268;DHT22;1646;52.450;13.326;2023-02-23T03:43:24;6.00;99.90
3268;DHT22;1646;52.450;13.326;2023-02-23T03:48:43;5.90;99.90
3268;DHT22;1646;52.450;13.326;2023-02-23T03:54:04;5.80;99.90
3268;DHT22;1646;52.450;13.326;2023-02-23T03:59:25;5.70;99.90
3268;DHT22;1646;52.450;13.326;2023-02-23T04:04:44;5.70;99.90
3268;DHT22;1646;52.450;13.326;2023-02-23T04:10:01;5.70;99.90
3268;DHT22;1646;52.450;13.326;2023-02-23T04:15:24;5.70;99.90
3268;DHT22;1646;52.450;13.326;2023-02-23T04:20:23;5.70;99.90
3268;DHT22;1646;52.450;13.326;2023-02-23T04:25:21;5.70;99.90
3268;DHT22;1646;52.450;13.326;2023-02-23T04:30:21;5.70;99.90
3268;DHT22;1646;52.450;13.326;2023-02-23T04:35:20;5.70;99.90
3268;DHT22;1646;52.450;13.326;2023-02-23T04:40:19;5.70;99.90
3268;DHT22;1646;52.450;13.326;2023-02-23T04:45:22;5.70;99.90
3268;DHT22;1646;52.450;13.326;2023-02-23T04:50:20;5.70;99.90
3268;DHT22;1646;52.450;13.326;2023-02-23T04:55:21;5.80;99.90
3268;DHT22;1646;52.450;13.326;2023-02-23T05:00:21;5.70;99.90
3268;DHT22;1646;52.450;13.326;2023-02-23T05:05:19;5.70;99.90
3268;DHT22;1646;52.450;13.326;2023-02-23T05:10:17;5.70;99.90
3268;DHT22;1646;52.450;13.326;2023-02-23T05:15:15;5.80;99.90
3268;DHT22;1646;52.450;13.326;2023-02-23T05:20:15;5.70;99.90
3268;DHT22;1646;52.450;13.326;2023-02-23T05:25:13;5.60;99.90
3268;DHT22;1646;52.450;13.326;2023-02-23T05:30:11;5.50;99.90
3268;DHT22;1646;52.450;13.326;2023-02-23T05:35:10;5.40;99.90
3268;DHT22;1646;52.450;13.326;2023-02-23T05:40:11;5.30;99.90
3268;DHT22;1646;52.450;13.326;2023-02-23T05:45:09;5.30;99.90
3268;DHT22;1646;52.450;13.326;2023-02-23T05:50:09;5.20;99.90
3268;DHT22;1646;52.450;13.326;2023-02-23T05:55:10;5.20;99.90
3268;DHT22;1646;52.450;13.326;2023-02-23T06:00:10;5.10;99.90
3268;DHT22;1646;52.450;13.326;2023-02-23T06:05:10;5.00;99.90
3268;DHT22;1646;52.450;13.326;2023-02-23T06:10:11;4.90;99.90
3268;DHT22;1646;52.450;13.326;2023-02-23T06:15:10;5.00;99.90
3268;DHT22;1646;52.450;13.326;2023-02-23T06:20:09;5.00;99.90
3268;DHT22;1646;52.450;13.326;2023-02-23T06:25:07;5.10;99.90
3268;DHT22;1646;52.450;13.326;2023-02-23T06:30:11;5.20;99.90
3268;DHT22;1646;52.450;13.326;2023-02-23T06:35:09;5.10;99.90
3268;DHT22;1646;52.450;13.326;2023-02-23T06:40:09;5.20;99.90
3268;DHT22;1646;52.450;13.326;2023-02-23T06:45:08;5.10;99.90
3268;DHT22;1646;52.450;13.326;2023-02-23T06:50:09;5.20;99.90
3268;DHT22;1646;52.450;13.326;2023-02-23T06:55:09;5.30;99.90
3268;DHT22;1646;52.450;13.326;2023-02-23T07:00:10;5.40;99.90
3268;DHT22;1646;52.450;13.326;2023-02-23T07:05:12;5.40;99.90
3268;DHT22;1646;52.450;13.326;2023-02-23T07:10:10;5.50;99.90
3268;DHT22;1646;52.450;13.326;2023-02-23T07:15:09;5.70;99.90
3268;DHT22;1646;52.450;13.326;2023-02-23T07:20:10;5.80;99.90
3268;DHT22;1646;52.450;13.326;2023-02-23T07:25:10;5.80;99.90
3268;DHT22;1646;52.450;13.326;2023-02-23T07:30:10;5.90;99.90
3268;DHT22;1646;52.450;13.326;2023-02-23T07:35:09;5.80;99.90
3268;DHT22;1646;52.450;13.326;2023-02-23T07:40:10;5.70;99.90
3268;DHT22;1646;52.450;13.326;2023-02-23T07:45:08;5.60;99.90
3268;DHT22;1646;52.450;13.326;2023-02-23T07:50:07;5.60;99.90
3268;DHT22;1646;52.450;13.326;2023-02-23T07:55:10;5.50;99.90
3268;DHT22;1646;52.450;13.326;2023-02-23T08:00:10;5.50;99.90
3268;DHT22;1646;52.450;13.326;2023-02-23T08:05:11;5.80;99.90
3268;DHT22;1646;52.450;13.326;2023-02-23T08:10:12;5.90;99.90
3268;DHT22;1646;52.450;13.326;2023-02-23T08:15:10;6.00;99.90
3268;DHT22;1646;52.450;13.326;2023-02-23T08:20:10;6.10;99.90
3268;DHT22;1646;52.450;13.326;2023-02-23T08:25:08;6.20;99.90
3268;DHT22;1646;52.450;13.326;2023-02-23T08:30:10;6.50;99.90
3268;DHT22;1646;52.450;13.326;2023-02-23T08:35:10;6.80;99.90
3268;DHT22;1646;52.450;13.326;2023-02-23T08:40:09;7.30;99.90
3268;DHT22;1646;52.450;13.326;2023-02-23T08:45:13;7.10;99.90
3268;DHT22;1646;52.450;13.326;2023-02-23T08:50:15;7.20;99.90
3268;DHT22;1646;52.450;13.326;2023-02-23T08:55:13;7.20;99.90
3268;DHT22;1646;52.450;13.326;2023-02-23T09:00:16;7.40;99.90
3268;DHT22;1646;52.450;13.326;2023-02-23T09:05:15;7.60;99.90
3268;DHT22;1646;52.450;13.326;2023-02-23T09:10:14;7.60;99.90
3268;DHT22;1646;52.450;13.326;2023-02-23T09:15:14;7.60;99.90
3268;DHT22;1646;52.450;13.326;2023-02-23T09:20:14;7.70;99.90
3268;DHT22;1646;52.450;13.326;2023-02-23T09:25:13;7.90;99.90
3268;DHT22;1646;52.450;13.326;2023-02-23T09:30:16;8.00;99.90
3268;DHT22;1646;52.450;13.326;2023-02-23T09:35:18;8.20;99.90
3268;DHT22;1646;52.450;13.326;2023-02-23T09:40:20;8.10;99.90
3268;DHT22;1646;52.450;13.326;2023-02-23T09:45:27;8.30;99.90
3268;DHT22;1646;52.450;13.326;2023-02-23T09:50:29;8.90;99.90
3268;DHT22;1646;52.450;13.326;2023-02-23T09:55:28;9.30;99.90
3268;DHT22;1646;52.450;13.326;2023-02-23T10:00:29;10.10;99.90
3268;DHT22;1646;52.450;13.326;2023-02-23T10:05:31;11.30;99.90
3268;DHT22;1646;52.450;13.326;2023-02-23T10:10:38;13.00;99.90
3268;DHT22;1646;52.450;13.326;2023-02-23T10:15:44;13.90;99.90
3268;DHT22;1646;52.450;13.326;2023-02-23T10:20:50;15.30;99.90
3268;DHT22;1646;52.450;13.326;2023-02-23T10:25:50;16.30;99.90
3268;DHT22;1646;52.450;13.326;2023-02-23T10:30:53;17.40;99.90
3268;DHT22;1646;52.450;13.326;2023-02-23T10:35:56;18.10;99.90
3268;DHT22;1646;52.450;13.326;2023-02-23T10:41:10;18.30;99.90
3268;DHT22;1646;52.450;13.326;2023-02-23T10:46:18;17.70;99.90
3268;DHT22;1646;52.450;13.326;2023-02-23T10:51:23;17.40;99.90
3268;DHT22;1646;52.450;13.326;2023-02-23T10:56:22;17.50;99.90
3268;DHT22;1646;52.450;13.326;2023-02-23T11:01:33;17.70;99.90
3268;DHT22;1646;52.450;13.326;2023-02-23T11:06:45;17.60;99.90
3268;DHT22;1646;52.450;13.326;2023-02-23T11:11:55;17.60;99.90
3268;DHT22;1646;52.450;13.326;2023-02-23T11:16:56;17.90;99.90
3268;DHT22;1646;52.450;13.326;2023-02-23T11:21:55;17.80;99.90
3268;DHT22;1646;52.450;13.326;2023-02-23T11:26:54;16.90;99.90
3268;DHT22;1646;52.450;13.326;2023-02-23T11:32:05;16.60;99.90
3268;DHT22;1646;52.450;13.326;2023-02-23T11:37:18;15.80;99.90
3268;DHT22;1646;52.450;13.326;2023-02-23T11:42:18;15.40;99.90
3268;DHT22;1646;52.450;13.326;2023-02-23T11:47:20;15.40;99.90
3268;DHT22;1646;52.450;13.326;2023-02-23T11:52:21;14.80;99.90
3268;DHT22;1646;52.450;13.326;2023-02-23T11:57:20;14.40;99.90
3268;DHT22;1646;52.450;13.326;2023-02-23T12:02:23;14.40;99.90
3268;DHT22;1646;52.450;13.326;2023-02-23T12:07:37;15.00;99.90
3268;DHT22;1646;52.450;13.326;2023-02-23T12:12:53;14.90;99.90
3268;DHT22;1646;52.450;13.326;2023-02-23T12:17:56;14.60;99.90
3268;DHT22;1646;52.450;13.326;2023-02-23T12:23:00;14.50;99.90
3268;DHT22;1646;52.450;13.326;2023-02-23T12:28:03;14.10;99.90
3268;DHT22;1646;52.450;13.326;2023-02-23T12:33:18;13.90;99.90
3268;DHT22;1646;52.450;13.326;2023-02-23T12:38:24;13.50;99.90
3268;DHT22;1646;52.450;13.326;2023-02-23T12:43:28;13.30;99.90
3268;DHT22;1646;52.450;13.326;2023-02-23T12:48:36;13.20;99.90
3268;DHT22;1646;52.450;13.326;2023-02-23T12:53:39;12.80;99.90
3268;DHT22;1646;52.450;13.326;2023-02-23T12:58:41;12.70;99.90
3268;DHT22;1646;52.450;13.326;2023-02-23T13:04:06;12.60;99.90
3268;DHT22;1646;52.450;13.326;2023-02-23T13:09:15;12.50;99.90
3268;DHT22;1646;52.450;13.326;2023-02-23T13:14:24;12.50;99.90
3268;DHT22;1646;52.450;13.326;2023-02-23T13:19:31;12.70;99.90
3268;DHT22;1646;52.450;13.326;2023-02-23T13:24:35;12.70;99.90
3268;DHT22;1646;52.450;13.326;2023-02-23T13:29:37;12.70;99.90
3268;DHT22;1646;52.450;13.326;2023-02-23T13:34:42;12.60;99.90
3268;DHT22;1646;52.450;13.326;2023-02-23T13:39:51;12.20;99.90
3268;DHT22;1646;52.450;13.326;2023-02-23T13:44:59;12.20;99.90
3268;DHT22;1646;52.450;13.326;2023-02-23T13:50:15;12.30;99.90
3268;DHT22;1646;52.450;13.326;2023-02-23T13:55:36;12.20;99.90
3268;DHT22;1646;52.450;13.326;2023-02-23T14:00:53;12.20;99.90
3268;DHT22;1646;52.450;13.326;2023-02-23T14:06:01;12.00;99.90
3268;DHT22;1646;52.450;13.326;2023-02-23T14:11:01;11.90;99.90
3268;DHT22;1646;52.450;13.326;2023-02-23T14:16:15;11.90;99.90
3268;DHT22;1646;52.450;13.326;2023-02-23T14:21:25;11.70;99.90
3268;DHT22;1646;52.450;13.326;2023-02-23T14:26:43;11.70;99.90
3268;DHT22;1646;52.450;13.326;2023-02-23T14:31:54;11.60;99.90
3268;DHT22;1646;52.450;13.326;2023-02-23T14:36:54;11.60;99.90
3268;DHT22;1646;52.450;13.326;2023-02-23T14:41:54;11.50;99.90
3268;DHT22;1646;52.450;13.326;2023-02-23T14:46:55;11.40;99.90
3268;DHT22;1646;52.450;13.326;2023-02-23T14:51:57;11.10;99.90
3268;DHT22;1646;52.450;13.326;2023-02-23T14:56:58;11.00;99.90
3268;DHT22;1646;52.450;13.326;2023-02-23T15:01:59;10.90;99.90
3268;DHT22;1646;52.450;13.326;2023-02-23T15:07:00;10.80;99.90
3268;DHT22;1646;52.450;13.326;2023-02-23T15:12:05;10.60;99.90
3268;DHT22;1646;52.450;13.326;2023-02-23T15:17:16;10.70;99.90
3268;DHT22;1646;52.450;13.326;2023-02-23T15:22:26;10.70;99.90
3268;DHT22;1646;52.450;13.326;2023-02-23T15:27:29;10.50;99.90
3268;DHT22;1646;52.450;13.326;2023-02-23T15:32:36;10.50;99.90
3268;DHT22;1646;52.450;13.326;2023-02-23T15:37:39;10.50;99.90
3268;DHT22;1646;52.450;13.326;2023-02-23T15:42:42;10.50;99.90
3268;DHT22;1646;52.450;13.326;2023-02-23T15:47:41;10.50;99.90
3268;DHT22;1646;52.450;13.326;2023-02-23T15:52:46;10.50;99.90
3268;DHT22;1646;52.450;13.326;2023-02-23T15:57:51;10.50;99.90
3268;DHT22;1646;52.450;13.326;2023-02-23T16:02:49;10.50;99.90
3268;DHT22;1646;52.450;13.326;2023-02-23T16:08:00;10.60;99.90
3268;DHT22;1646;52.450;13.326;2023-02-23T16:13:02;10.50;99.90
3268;DHT22;1646;52.450;13.326;2023-02-23T16:18:01;10.50;99.90
3268;DHT22;1646;52.450;13.326;2023-02-23T16:23:02;10.60;99.90
3268;DHT22;1646;52.450;13.326;2023-02-23T16:28:06;10.60;99.90
3268;DHT22;1646;52.450;13.326;2023-02-23T16:33:10;10.60;99.90
3268;DHT22;1646;52.450;13.326;2023-02-23T16:38:23;10.70;99.90
3268;DHT22;1646;52.450;13.326;2023-02-23T16:43:22;10.80;99.90
3268;DHT22;1646;52.450;13.326;2023-02-23T16:48:20;10.80;99.90
3268;DHT22;1646;52.450;13.326;2023-02-23T16:53:21;10.70;99.90
3268;DHT22;1646;52.450;13.326;2023-02-23T16:58:22;10.60;99.90
3268;DHT22;1646;52.450;13.326;2023-02-23T17:03:23;10.60;99.90
3268;DHT22;1646;52.450;13.326;2023-02-23T17:08:23;10.70;99.90
3268;DHT22;1646;52.450;13.326;2023-02-23T17:13:23;10.50;99.90
3268;DHT22;1646;52.450;13.326;2023-02-23T17:18:23;10.50;99.90
3268;DHT22;1646;52.450;13.326;2023-02-23T17:23:24;10.50;99.90
3268;DHT22;1646;52.450;13.326;2023-02-23T17:28:23;10.50;99.90
3268;DHT22;1646;52.450;13.326;2023-02-23T17:33:21;10.40;99.90
3268;DHT22;1646;52.450;13.326;2023-02-23T17:38:22;10.40;99.90
3268;DHT22;1646;52.450;13.326;2023-02-23T17:43:30;10.50;99.90
3268;DHT22;1646;52.450;13.326;2023-02-23T17:48:29;10.50;99.90
3268;DHT22;1646;52.450;13.326;2023-02-23T17:53:31;10.50;99.90
3268;DHT22;1646;52.450;13.326;2023-02-23T17:58:30;10.50;99.90
3268;DHT22;1646;52.450;13.326;2023-02-23T18:03:30;10.50;99.90
3268;DHT22;1646;52.450;13.326;2023-02-23T18:08:31;10.50;99.90
3268;DHT22;1646;52.450;13.326;2023-02-23T18:13:30;10.50;99.90
3268;DHT22;1646;52.450;13.326;2023-02-23T18:18:30;10.40;99.90
3268;DHT22;1646;52.450;13.326;2023-02-23T18:23:31;10.30;99.90
3268;DHT22;1646;52.450;13.326;2023-02-23T18:28:29;10.20;99.90
3268;DHT22;1646;52.450;13.326;2023-02-23T18:33:28;10.10;99.90
3268;DHT22;1646;52.450;13.326;2023-02-23T18:38:27;10.10;99.90
3268;DHT22;1646;52.450;13.326;2023-02-23T18:43:26;10.10;99.90
3268;DHT22;1646;52.450;13.326;2023-02-23T18:48:25;10.10;99.90
3268;DHT22;1646;52.450;13.326;2023-02-23T18:53:23;10.00;99.90
3268;DHT22;1646;52.450;13.326;2023-02-23T18:58:22;10.00;99.90
3268;DHT22;1646;52.450;13.326;2023-02-23T19:03:22;9.90;99.90
3268;DHT22;1646;52.450;13.326;2023-02-23T19:08:21;9.90;99.90
3268;DHT22;1646;52.450;13.326;2023-02-23T19:13:19;9.90;99.90
3268;DHT22;1646;52.450;13.326;2023-02-23T19:18:18;9.90;99.90
3268;DHT22;1646;52.450;13.326;2023-02-23T19:23:18;9.90;99.90
3268;DHT22;1646;52.450;13.326;2023-02-23T19:28:16;9.90;99.90
3268;DHT22;1646;52.450;13.326;2023-02-23T19:33:15;9.90;99.90
3268;DHT22;1646;52.450;13.326;2023-02-23T19:38:13;9.90;99.90
3268;DHT22;1646;52.450;13.326;2023-02-23T19:43:14;9.90;99.90
3268;DHT22;1646;52.450;13.326;2023-02-23T19:48:14;9.90;99.90
3268;DHT22;1646;52.450;13.326;2023-02-23T19:53:13;9.80;99.90
3268;DHT22;1646;52.450;13.326;2023-02-23T19:58:12;9.70;99.90
3268;DHT22;1646;52.450;13.326;2023-02-23T20:03:11;9.70;99.90
3268;DHT22;1646;52.450;13.326;2023-02-23T20:08:10;9.60;99.90
3268;DHT22;1646;52.450;13.326;2023-02-23T20:13:09;9.50;99.90
3268;DHT22;1646;52.450;13.326;2023-02-23T20:18:07;9.50;99.90
3268;DHT22;1646;52.450;13.326;2023-02-23T20:23:07;9.40;99.90
3268;DHT22;1646;52.450;13.326;2023-02-23T20:28:05;9.30;99.90
3268;DHT22;1646;52.450;13.326;2023-02-23T20:33:04;9.20;99.90
3268;DHT22;1646;52.450;13.326;2023-02-23T20:38:08;9.10;99.90
3268;DHT22;1646;52.450;13.326;2023-02-23T20:43:07;9.00;99.90
3268;DHT22;1646;52.450;13.326;2023-02-23T20:48:05;9.00;99.90
3268;DHT22;1646;52.450;13.326;2023-02-23T20:53:05;9.10;99.90
3268;DHT22;1646;52.450;13.326;2023-02-23T20:58:05;9.10;99.90
3268;DHT22;1646;52.450;13.326;2023-02-23T21:03:04;9.20;99.90
3268;DHT22;1646;52.450;13.326;2023-02-23T21:08:04;9.20;99.90
3268;DHT22;1646;52.450;13.326;2023-02-23T21:13:05;9.10;99.90
3268;DHT22;1646;52.450;13.326;2023-02-23T21:18:07;9.10;99.90
3268;DHT22;1646;52.450;13.326;2023-02-23T21:23:06;9.10;99.90
3268;DHT22;1646;52.450;13.326;2023-02-23T21:28:06;9.00;99.90
3268;DHT22;1646;52.450;13.326;2023-02-23T21:33:04;8.90;99.90
3268;DHT22;1646;52.450;13.326;2023-02-23T21:38:03;9.00;99.90
3268;DHT22;1646;52.450;13.326;2023-02-23T21:43:05;9.00;99.90
3268;DHT22;1646;52.450;13.326;2023-02-23T21:48:05;8.90;99.90
3268;DHT22;1646;52.450;13.326;2023-02-23T21:53:03;8.90;99.90
3268;DHT22;1646;52.450;13.326;2023-02-23T21:58:02;9.00;99.90
3268;DHT22;1646;52.450;13.326;2023-02-23T22:03:03;9.00;99.90
3268;DHT22;1646;52.450;13.326;2023-02-23T22:08:01;9.00;99.90
3268;DHT22;1646;52.450;13.326;2023-02-23T22:13:00;8.90;99.90
3268;DHT22;1646;52.450;13.326;2023-02-23T22:17:59;8.80;99.90
3268;DHT22;1646;52.450;13.326;2023-02-23T22:22:58;8.70;99.90
3268;DHT22;1646;52.450;13.326;2023-02-23T22:27:59;8.80;99.90
3268;DHT22;1646;52.450;13.326;2023-02-23T22:32:57;8.70;99.90
3268;DHT22;1646;52.450;13.326;2023-02-23T22:37:57;8.70;99.90
3268;DHT22;1646;52.450;13.326;2023-02-23T22:42:57;8.60;99.90
3268;DHT22;1646;52.450;13.326;2023-02-23T22:47:55;8.50;99.90
3268;DHT22;1646;52.450;13.326;2023-02-23T22:52:58;8.50;99.90
3268;DHT22;1646;52.450;13.326;2023-02-23T22:57:58;8.30;99.90
3268;DHT22;1646;52.450;13.326;2023-02-23T23:02:56;8.30;99.90
3268;DHT22;1646;52.450;13.326;2023-02-23T23:07:55;8.40;99.90
3268;DHT22;1646;52.450;13.326;2023-02-23T23:12:54;8.40;99.90
3268;DHT22;1646;52.450;13.326;2023-02-23T23:17:55;8.40;99.90
3268;DHT22;1646;52.450;13.326;2023-02-23T23:22:53;8.30;99.90
3268;DHT22;1646;52.450;13.326;2023-02-23T23:27:54;8.30;99.90
3268;DHT22;1646;52.450;13.326;2023-02-23T23:32:52;8.20;99.90
3268;DHT22;1646;52.450;13.326;2023-02-23T23:37:50;8.20;99.90
3268;DHT22;1646;52.450;13.326;2023-02-23T23:42:49;8.20;99.90
3268;DHT22;1646;52.450;13.326;2023-02-23T23:47:49;8.20;99.90
3268;DHT22;1646;52.450;13.326;2023-02-23T23:52:47;8.10;99.90
3268;DHT22;1646;52.450;13.326;2023-02-23T23:57:46;8.10;99.90
